Etusivu
METAR-TAF:

METAR-TAF

Lentoasemat :

Sandane, Norja

Leveyspiiri: 61-50N, Pituuspiiri: 006-07E, korkeus merenpinnasta: 6 m

Tämänhetkinen sää

Tämä raportti tehtiin 51 minuuttia sitten, kello 11.20 UTC
Tuuli 1 kn eri suunnista
Lämpötila 0°C
Kosteus 100%
Ilmanpaine 996 hPa
Näkyvyys: 8000 m
Hajanaisia pilviä 200 ft:n korkeudessa
Hajonneita pilviä 700 ft:n korkeudessa

METAR: ENSD 131120Z VRB01KT 8000 SCT002 BKN007 00/00 Q0996 RMK WIND 1138FT VRB01KT

Aika: 13:11 (12:11 UTC)


TAF: puuttuu

Säähavainnot ja -ennusteet yli 4000 lentoasemalta (METAR- ja TAF-raportit).

Käytössä olevat sääasemat on merkitty karttaan keltaisilla ja punaisilla pisteillä.

Aseta hiiri pisteen päälle nähdäksesi sääaseman nimen.

Klikkaa sitten nähdäksesi säähavainnot ja -ennusteet.

Kartan vaihtaminen: klikkaa mustalla rastilla varustettuja vihreitä pisteitä, niin voit zoomata sisään; viivalla varustettua vihreää pistettä, niin voit zoomata ulos tai vihreitä nuolia, niin pääset viereisille kartoille.


METAR-TAF: